Time;durP1;ratioP1;P1;durP2;ratioP2;P2;SDS_P1;SDS_P2;PMS_P1;PMS_P2;Temp;Humidity;BMP_temperature;BMP_pressure;BME280_temperature;BME280_humidity;BME280_pressure;Samples;Min_cycle;Max_cycle;Signal;HPM_P1;HPM_P2
2022/01/20 00:00:19;;;;;;;0.20;0.20;;;4.20;99.90;;;;;;5024380;28;20075;-70
2022/01/20 00:02:58;;;;;;;0.10;0.10;;;4.10;99.90;;;;;;5014412;28;20026;-70
2022/01/20 00:08:10;;;;;;;0.10;0.10;;;4.10;99.90;;;;;;5030882;28;20479;-70
2022/01/20 00:27:08;;;;;;;0.10;0.10;;;4.20;99.90;;;;;;5052326;28;20138;-70
2022/01/20 00:30:01;;;;;;;0.60;0.60;;;4.20;99.90;;;;;;5039398;28;20017;-71
2022/01/20 00:32:25;;;;;;;0.10;0.10;;;4.30;99.90;;;;;;5016134;28;20043;-71
2022/01/20 00:37:26;;;;;;;0.10;0.10;;;4.30;99.90;;;;;;5030267;28;20476;-71
2022/01/20 00:39:52;;;;;;;0.30;0.30;;;4.20;99.90;;;;;;5030850;28;20037;-71
2022/01/20 00:42:18;;;;;;;0.10;0.10;;;4.20;99.90;;;;;;5031822;28;20107;-71
2022/01/20 00:44:45;;;;;;;0.20;0.20;;;4.20;99.90;;;;;;5032237;28;20046;-72
2022/01/20 00:47:11;;;;;;;0.10;0.10;;;4.20;99.90;;;;;;5035641;28;20030;-70
2022/01/20 00:49:37;;;;;;;0.10;0.10;;;4.20;99.90;;;;;;5031533;28;20087;-70
2022/01/20 00:52:04;;;;;;;0.10;0.10;;;4.10;99.90;;;;;;5031464;28;20104;-71
2022/01/20 00:54:30;;;;;;;0.10;0.10;;;4.10;99.90;;;;;;5022542;28;20116;-71
2022/01/20 00:56:56;;;;;;;0.10;0.10;;;4.20;99.90;;;;;;5030929;28;20124;-71
2022/01/20 00:59:22;;;;;;;0.10;0.10;;;4.20;99.90;;;;;;5028304;28;20405;-70
2022/01/20 01:01:47;;;;;;;0.10;0.10;;;4.20;99.90;;;;;;5022825;28;20033;-71
2022/01/20 01:04:13;;;;;;;0.10;0.10;;;4.20;99.90;;;;;;5038194;28;20033;-71
2022/01/20 01:09:20;;;;;;;0.10;0.10;;;4.10;99.90;;;;;;5033805;28;20072;-71
2022/01/20 01:11:47;;;;;;;0.10;0.10;;;4.20;99.90;;;;;;5030990;28;20159;-70
2022/01/20 01:14:15;;;;;;;0.10;0.10;;;4.20;99.90;;;;;;5032866;28;20025;-72
2022/01/20 01:20:06;;;;;;;0.10;0.10;;;4.20;99.90;;;;;;5032049;28;20558;-71
2022/01/20 01:24:42;;;;;;;0.10;0.10;;;3.90;99.90;;;;;;5020489;28;20026;-72
2022/01/20 01:27:10;;;;;;;0.13;0.13;;;3.90;99.90;;;;;;5020663;28;20030;-71
2022/01/20 01:32:25;;;;;;;0.75;0.75;;;3.90;99.90;;;;;;5030525;28;20576;-71
2022/01/20 01:34:53;;;;;;;0.10;0.10;;;3.90;99.90;;;;;;5010885;28;20034;-71
2022/01/20 01:40:12;;;;;;;0.10;0.10;;;3.90;99.90;;;;;;5013528;28;20041;-72
2022/01/20 01:42:48;;;;;;;0.10;0.10;;;3.90;99.90;;;;;;5043856;28;20638;-71
2022/01/20 01:45:18;;;;;;;0.10;0.10;;;3.90;99.90;;;;;;5030634;28;20053;-71
2022/01/20 01:47:45;;;;;;;0.10;0.10;;;3.90;99.90;;;;;;5030314;28;20051;-71
2022/01/20 01:50:11;;;;;;;0.10;0.10;;;3.90;99.90;;;;;;5030599;28;20025;-71
2022/01/20 01:52:37;;;;;;;0.10;0.10;;;3.90;99.90;;;;;;5029866;28;20027;-71
2022/01/20 01:55:03;;;;;;;0.10;0.10;;;3.90;99.90;;;;;;5030191;28;20088;-70
2022/01/20 01:57:29;;;;;;;0.10;0.10;;;3.90;99.90;;;;;;5046473;28;20090;-72
2022/01/20 01:59:56;;;;;;;0.10;0.10;;;3.90;99.90;;;;;;5050510;28;20281;-72
2022/01/20 02:02:22;;;;;;;0.10;0.10;;;3.90;99.90;;;;;;5033904;28;20036;-71
2022/01/20 02:04:49;;;;;;;0.10;0.10;;;3.90;99.90;;;;;;5027996;28;20479;-70
2022/01/20 02:20:35;;;;;;;0.10;0.10;;;3.90;99.90;;;;;;5027653;28;20030;-71
2022/01/20 02:23:01;;;;;;;0.10;0.10;;;3.90;99.90;;;;;;5029140;28;20395;-71
2022/01/20 02:25:29;;;;;;;0.10;0.10;;;3.90;99.90;;;;;;5029881;28;20478;-71
2022/01/20 02:27:57;;;;;;;0.10;0.10;;;3.90;99.90;;;;;;5012188;28;20116;-70
2022/01/20 02:30:25;;;;;;;0.10;0.10;;;3.90;99.90;;;;;;5047395;28;20437;-72
2022/01/20 02:32:55;;;;;;;0.10;0.10;;;3.90;99.90;;;;;;5042705;28;20033;-71
2022/01/20 02:35:22;;;;;;;0.10;0.10;;;3.90;99.90;;;;;;5018509;28;20037;-71
2022/01/20 02:37:53;;;;;;;0.10;0.10;;;3.90;99.90;;;;;;5017790;28;20467;-70
2022/01/20 02:45:41;;;;;;;0.10;0.10;;;3.90;99.90;;;;;;5016117;28;20075;-71
2022/01/20 02:48:06;;;;;;;0.10;0.10;;;3.80;99.90;;;;;;5029752;28;20025;-71
2022/01/20 02:50:32;;;;;;;0.10;0.10;;;3.90;99.90;;;;;;5029556;28;20051;-71
2022/01/20 02:52:57;;;;;;;0.10;0.10;;;3.90;99.90;;;;;;5028880;28;20033;-70
2022/01/20 02:55:23;;;;;;;0.10;0.10;;;3.90;99.90;;;;;;5037358;28;20039;-72
2022/01/20 02:57:49;;;;;;;0.10;0.10;;;3.90;99.90;;;;;;5049493;28;20504;-71
2022/01/20 03:00:15;;;;;;;0.10;0.10;;;4.00;99.90;;;;;;5049525;28;20040;-71
2022/01/20 03:02:42;;;;;;;0.10;0.10;;;4.00;99.90;;;;;;5040472;28;20029;-72
2022/01/20 03:05:10;;;;;;;0.10;0.10;;;4.10;99.90;;;;;;5028785;28;20037;-70
2022/01/20 03:07:36;;;;;;;0.10;0.10;;;4.10;99.90;;;;;;5029352;28;20139;-71
2022/01/20 03:10:06;;;;;;;0.10;0.10;;;4.10;99.90;;;;;;5036158;28;20550;-71
2022/01/20 03:12:33;;;;;;;0.15;0.15;;;4.10;99.90;;;;;;5036568;28;20108;-71
2022/01/20 03:14:58;;;;;;;0.10;0.10;;;4.10;99.90;;;;;;5018525;28;20478;-71
2022/01/20 03:17:24;;;;;;;0.08;0.08;;;4.10;99.90;;;;;;5050124;22;20044;-71
2022/01/20 03:19:49;;;;;;;0.10;0.10;;;4.10;99.90;;;;;;5050234;28;20041;-72
2022/01/20 03:22:15;;;;;;;0.10;0.10;;;4.20;99.90;;;;;;5052338;28;20033;-70
2022/01/20 03:24:41;;;;;;;0.10;0.10;;;4.20;99.90;;;;;;5051804;28;20386;-69
2022/01/20 03:27:07;;;;;;;0.10;0.10;;;4.20;99.90;;;;;;5053481;28;20028;-70
2022/01/20 03:29:33;;;;;;;0.10;0.10;;;4.20;99.90;;;;;;5042451;28;20207;-69
2022/01/20 03:31:58;;;;;;;0.10;0.10;;;4.20;99.90;;;;;;5033016;28;20474;-69
2022/01/20 03:34:24;;;;;;;0.10;0.10;;;4.20;99.90;;;;;;5033093;28;20036;-70
2022/01/20 03:36:52;;;;;;;0.10;0.10;;;4.30;99.90;;;;;;5041145;28;20033;-69
2022/01/20 03:39:18;;;;;;;0.10;0.10;;;4.20;99.90;;;;;;5037498;28;20053;-70
2022/01/20 03:41:44;;;;;;;0.10;0.10;;;4.30;99.90;;;;;;5032860;28;20043;-69
2022/01/20 03:44:09;;;;;;;0.10;0.10;;;4.20;99.90;;;;;;5033009;28;20030;-70
2022/01/20 03:46:35;;;;;;;0.10;0.10;;;4.30;99.90;;;;;;5033065;28;20025;-69
2022/01/20 03:49:10;;;;;;;0.10;0.10;;;4.30;99.90;;;;;;5033385;28;20029;-69
2022/01/20 03:51:37;;;;;;;0.10;0.10;;;4.30;99.90;;;;;;5032633;28;20060;-69
2022/01/20 03:54:05;;;;;;;0.10;0.10;;;4.30;99.90;;;;;;5036710;28;20033;-70
2022/01/20 03:56:31;;;;;;;0.10;0.10;;;4.30;99.90;;;;;;5052865;28;20020;-69
2022/01/20 03:58:58;;;;;;;0.10;0.10;;;4.30;99.90;;;;;;5047506;28;20037;-69
2022/01/20 04:01:23;;;;;;;0.10;0.10;;;4.40;99.90;;;;;;5032290;28;20509;-69
2022/01/20 04:03:49;;;;;;;0.10;0.10;;;4.30;99.90;;;;;;5032879;28;20025;-69
2022/01/20 04:06:15;;;;;;;0.10;0.10;;;4.40;99.90;;;;;;5037834;28;20027;-69
2022/01/20 04:08:43;;;;;;;0.10;0.10;;;4.30;99.90;;;;;;5047061;28;20045;-70
2022/01/20 04:11:21;;;;;;;0.10;0.10;;;4.40;99.90;;;;;;5050657;28;20035;-69
2022/01/20 04:13:47;;;;;;;0.10;0.10;;;4.40;99.90;;;;;;5039549;28;20029;-68
2022/01/20 04:16:18;;;;;;;0.10;0.10;;;4.30;99.90;;;;;;5032085;28;20083;-69
2022/01/20 04:18:56;;;;;;;0.10;0.10;;;4.30;99.90;;;;;;5034796;28;20257;-69
2022/01/20 04:21:28;;;;;;;0.10;0.10;;;4.30;99.90;;;;;;5052416;28;20028;-69
2022/01/20 04:23:55;;;;;;;0.10;0.10;;;4.30;99.90;;;;;;5046125;28;20056;-69
2022/01/20 04:26:23;;;;;;;0.10;0.10;;;4.20;99.90;;;;;;5039875;28;20017;-70
2022/01/20 04:28:53;;;;;;;0.10;0.10;;;4.20;99.90;;;;;;5035310;28;20033;-69
2022/01/20 04:31:22;;;;;;;0.10;0.10;;;4.30;99.90;;;;;;5047000;28;20036;-71
2022/01/20 04:33:48;;;;;;;0.10;0.10;;;4.30;99.90;;;;;;5032272;28;20036;-70
2022/01/20 04:36:15;;;;;;;0.10;0.10;;;4.30;99.90;;;;;;5031524;28;20403;-70
2022/01/20 04:38:40;;;;;;;0.10;0.10;;;4.30;99.90;;;;;;5033723;28;20026;-69
2022/01/20 04:41:06;;;;;;;0.10;0.10;;;4.30;99.90;;;;;;5051419;28;20021;-69
2022/01/20 04:43:32;;;;;;;0.10;0.10;;;4.30;99.90;;;;;;5032234;28;20022;-69
2022/01/20 04:46:08;;;;;;;0.10;0.10;;;4.30;99.90;;;;;;5010233;28;20344;-70
2022/01/20 04:59:39;;;;;;;0.10;0.10;;;4.30;99.90;;;;;;5042112;28;20028;-70
2022/01/20 05:02:04;;;;;;;0.10;0.10;;;4.30;99.90;;;;;;5033183;28;20016;-70
2022/01/20 05:04:30;;;;;;;0.10;0.10;;;4.20;99.90;;;;;;5047048;28;20023;-70
2022/01/20 05:06:57;;;;;;;0.10;0.10;;;4.20;99.90;;;;;;5051718;28;20535;-69
2022/01/20 05:09:23;;;;;;;0.10;0.10;;;4.20;99.90;;;;;;5042392;28;20030;-70
2022/01/20 05:11:59;;;;;;;0.10;0.10;;;4.10;99.90;;;;;;5030992;28;20037;-70
2022/01/20 05:14:28;;;;;;;0.10;0.10;;;4.20;99.90;;;;;;5011574;28;20053;-69
2022/01/20 05:16:57;;;;;;;0.10;0.10;;;4.10;99.90;;;;;;5011587;28;20033;-71
2022/01/20 05:19:24;;;;;;;0.10;0.10;;;4.10;99.90;;;;;;5026233;28;20037;-71
2022/01/20 05:21:50;;;;;;;0.10;0.10;;;4.10;99.90;;;;;;5051386;28;20033;-69
2022/01/20 05:24:16;;;;;;;0.10;0.10;;;4.10;99.90;;;;;;5046635;28;20033;-69
2022/01/20 05:26:41;;;;;;;0.10;0.10;;;4.10;99.90;;;;;;5030934;28;20037;-71
2022/01/20 05:29:07;;;;;;;0.10;0.10;;;4.00;99.90;;;;;;5027092;28;20033;-70
2022/01/20 05:31:33;;;;;;;0.10;0.10;;;4.00;99.90;;;;;;5036968;28;20050;-70
2022/01/20 05:33:59;;;;;;;0.10;0.10;;;4.00;99.90;;;;;;5030805;28;20112;-70
2022/01/20 05:36:25;;;;;;;0.10;0.10;;;4.00;99.90;;;;;;5030836;28;20186;-70
2022/01/20 05:38:50;;;;;;;0.10;0.10;;;4.00;99.90;;;;;;5032492;28;20056;-70
2022/01/20 05:41:18;;;;;;;0.10;0.10;;;4.00;99.90;;;;;;5040739;28;20040;-70
2022/01/20 05:43:44;;;;;;;0.10;0.10;;;3.90;99.90;;;;;;5030591;28;20025;-70
2022/01/20 05:46:09;;;;;;;0.03;0.03;;;4.00;99.90;;;;;;5029974;28;20179;-69
2022/01/20 05:48:36;;;;;;;0.10;0.10;;;4.00;99.90;;;;;;5030853;28;20028;-70
2022/01/20 05:51:05;;;;;;;0.10;0.10;;;4.00;99.90;;;;;;5049949;28;20029;-69
2022/01/20 05:53:32;;;;;;;0.10;0.10;;;4.00;99.90;;;;;;5033012;28;20195;-70
2022/01/20 05:55:58;;;;;;;0.10;0.10;;;4.00;99.90;;;;;;5048633;28;20165;-69
2022/01/20 05:58:25;;;;;;;0.10;0.10;;;4.00;99.90;;;;;;5046204;28;20558;-70
2022/01/20 06:00:50;;;;;;;0.10;0.10;;;4.00;99.90;;;;;;5049134;28;20025;-70
2022/01/20 06:06:01;;;;;;;0.10;0.10;;;4.70;99.90;;;;;;5030105;28;20056;-69
2022/01/20 06:08:27;;;;;;;0.10;0.10;;;3.90;99.90;;;;;;5030138;28;20029;-70
2022/01/20 06:10:52;;;;;;;0.10;0.10;;;3.90;99.90;;;;;;5048210;28;20028;-69
2022/01/20 06:13:18;;;;;;;0.10;0.10;;;3.90;99.90;;;;;;5042180;28;20040;-71
2022/01/20 06:15:45;;;;;;;0.10;0.10;;;3.90;99.90;;;;;;5050031;28;20060;-70
2022/01/20 06:18:11;;;;;;;0.10;0.10;;;3.90;99.90;;;;;;5050333;28;20025;-70
2022/01/20 06:20:37;;;;;;;0.10;0.10;;;3.90;99.90;;;;;;5048754;28;20623;-69
2022/01/20 06:23:05;;;;;;;0.10;0.10;;;3.90;99.90;;;;;;5029919;28;20053;-69
2022/01/20 06:25:31;;;;;;;0.10;0.10;;;3.90;99.90;;;;;;5042710;28;20383;-70
2022/01/20 06:27:57;;;;;;;0.10;0.10;;;3.90;99.90;;;;;;5045615;28;20029;-70
2022/01/20 06:30:24;;;;;;;0.10;0.10;;;3.90;99.90;;;;;;5029781;28;20032;-70
2022/01/20 06:32:51;;;;;;;0.10;0.10;;;3.90;99.90;;;;;;5029936;28;20028;-69
2022/01/20 06:35:17;;;;;;;0.10;0.10;;;4.00;99.90;;;;;;5029765;28;20474;-70
2022/01/20 06:37:43;;;;;;;0.10;0.10;;;4.80;99.90;;;;;;5034520;28;20056;-70
2022/01/20 06:40:10;;;;;;;0.10;0.10;;;4.00;99.90;;;;;;5036795;28;20486;-69
2022/01/20 06:42:36;;;;;;;0.08;0.08;;;4.10;99.90;;;;;;5029571;28;20037;-70
2022/01/20 06:45:04;;;;;;;0.10;0.10;;;4.10;99.90;;;;;;5029014;28;20028;-69
2022/01/20 06:47:29;;;;;;;0.10;0.10;;;4.10;99.90;;;;;;5031518;28;20032;-69
2022/01/20 06:49:55;;;;;;;0.10;0.10;;;4.10;99.90;;;;;;5048996;28;20085;-70
2022/01/20 06:52:21;;;;;;;0.10;0.10;;;4.10;99.90;;;;;;5037583;28;20025;-70
2022/01/20 06:54:46;;;;;;;0.10;0.10;;;4.10;99.90;;;;;;5035543;28;20037;-70
2022/01/20 06:57:12;;;;;;;0.10;0.10;;;4.10;99.90;;;;;;5030680;28;20036;-71
2022/01/20 06:59:38;;;;;;;0.10;0.10;;;4.00;99.90;;;;;;5028877;28;20557;-69
2022/01/20 07:02:03;;;;;;;0.10;0.10;;;4.00;99.90;;;;;;5008673;28;20135;-69
2022/01/20 07:04:29;;;;;;;0.10;0.10;;;4.00;99.90;;;;;;5008993;28;20056;-71
2022/01/20 07:06:55;;;;;;;0.10;0.10;;;3.90;99.90;;;;;;5028332;28;20033;-70
2022/01/20 07:09:21;;;;;;;0.10;0.10;;;3.90;99.90;;;;;;5036119;28;20041;-69
2022/01/20 07:11:47;;;;;;;0.00;0.00;;;3.80;99.90;;;;;;5033726;28;20036;-71
2022/01/20 07:14:12;;;;;;;0.90;0.90;;;3.80;99.90;;;;;;5036228;28;20041;-72
2022/01/20 07:16:38;;;;;;;0.10;0.10;;;3.70;99.90;;;;;;5037279;28;20049;-69
2022/01/20 07:19:04;;;;;;;0.10;0.10;;;3.70;99.90;;;;;;5033282;28;20538;-70
2022/01/20 07:21:29;;;;;;;0.10;0.10;;;3.60;99.90;;;;;;5034150;28;20036;-74
2022/01/20 07:23:55;;;;;;;0.10;0.10;;;3.10;99.90;;;;;;5026956;28;20030;-73
2022/01/20 07:26:21;;;;;;;0.10;0.10;;;3.60;99.90;;;;;;5019581;28;20112;-71
2022/01/20 07:28:47;;;;;;;0.10;0.10;;;3.60;99.90;;;;;;5011154;28;20037;-70
2022/01/20 07:31:12;;;;;;;0.10;0.10;;;4.50;99.90;;;;;;5032061;28;20033;-70
2022/01/20 07:33:38;;;;;;;0.10;0.10;;;3.60;99.90;;;;;;5023193;28;20034;-71
2022/01/20 07:36:04;;;;;;;0.10;0.10;;;3.60;99.90;;;;;;5018532;28;20144;-71
2022/01/20 07:38:31;;;;;;;0.10;0.10;;;3.50;99.90;;;;;;5032913;28;20532;-70
2022/01/20 07:40:57;;;;;;;0.10;0.10;;;3.50;99.90;;;;;;5026472;28;20083;-71
2022/01/20 07:43:22;;;;;;;0.10;0.10;;;3.50;99.90;;;;;;5027046;28;20206;-69
2022/01/20 07:45:48;;;;;;;0.10;0.10;;;3.60;99.90;;;;;;5027158;28;20493;-70
2022/01/20 07:48:14;;;;;;;0.10;0.10;;;3.60;99.90;;;;;;5028782;28;20481;-69
2022/01/20 07:50:40;;;;;;;0.10;0.10;;;3.60;99.90;;;;;;5031306;28;20029;-69
2022/01/20 07:53:05;;;;;;;0.10;0.10;;;3.60;99.90;;;;;;5025452;28;20459;-67
2022/01/20 07:55:31;;;;;;;0.10;0.10;;;3.60;99.90;;;;;;5031756;28;20403;-70
2022/01/20 07:57:57;;;;;;;0.10;0.10;;;3.60;99.90;;;;;;5029192;28;20029;-69
2022/01/20 08:00:23;;;;;;;0.10;0.10;;;3.60;99.90;;;;;;5027541;28;20099;-68
2022/01/20 08:02:49;;;;;;;0.10;0.10;;;3.60;99.90;;;;;;5029754;28;20127;-71
2022/01/20 08:05:15;;;;;;;0.10;0.10;;;3.60;99.90;;;;;;5029406;28;20140;-71
2022/01/20 08:07:41;;;;;;;0.10;0.10;;;3.60;99.90;;;;;;5034719;28;20082;-73
2022/01/20 08:10:08;;;;;;;0.10;0.10;;;3.60;99.90;;;;;;5031219;28;20534;-70
2022/01/20 08:12:33;;;;;;;0.10;0.10;;;3.60;99.90;;;;;;5032164;28;20249;-70
2022/01/20 08:15:00;;;;;;;0.10;0.10;;;3.60;99.90;;;;;;5031298;28;20502;-70
2022/01/20 08:17:26;;;;;;;0.10;0.10;;;3.70;99.90;;;;;;5028956;28;20478;-71
2022/01/20 08:19:52;;;;;;;0.10;0.10;;;3.90;99.90;;;;;;5036998;28;20041;-72
2022/01/20 08:22:18;;;;;;;0.10;0.10;;;4.00;99.90;;;;;;5032012;28;20037;-70
2022/01/20 08:24:49;;;;;;;0.10;0.10;;;4.10;99.90;;;;;;5031540;28;20104;-71
2022/01/20 08:27:17;;;;;;;0.10;0.10;;;4.10;99.90;;;;;;5030608;28;20168;-70
2022/01/20 08:29:43;;;;;;;0.10;0.10;;;4.10;99.90;;;;;;5037582;28;20075;-71
2022/01/20 08:32:08;;;;;;;0.10;0.10;;;4.10;99.90;;;;;;5034068;28;20112;-71
2022/01/20 08:34:34;;;;;;;0.10;0.10;;;4.10;99.90;;;;;;5031138;28;20033;-71
2022/01/20 08:37:00;;;;;;;0.10;0.10;;;4.10;99.90;;;;;;5036071;28;20556;-72
2022/01/20 08:41:52;;;;;;;0.10;0.10;;;4.10;99.90;;;;;;5030609;28;20032;-71
2022/01/20 08:44:17;;;;;;;0.10;0.10;;;4.10;99.90;;;;;;5034047;28;20100;-71
2022/01/20 08:46:43;;;;;;;2.58;2.38;;;4.20;99.90;;;;;;5034931;28;20080;-70
2022/01/20 08:49:09;;;;;;;0.10;0.10;;;4.20;99.90;;;;;;5039337;28;20509;-71
2022/01/20 08:51:34;;;;;;;0.10;0.10;;;4.20;99.90;;;;;;5032859;28;20028;-71
2022/01/20 08:54:00;;;;;;;5.82;3.03;;;4.20;99.90;;;;;;5029612;28;20513;-71
2022/01/20 08:56:26;;;;;;;0.10;0.10;;;4.20;99.90;;;;;;5032267;28;20451;-70
2022/01/20 08:58:51;;;;;;;0.10;0.10;;;4.30;99.90;;;;;;5036848;28;20385;-71
2022/01/20 09:01:17;;;;;;;0.20;0.20;;;4.30;99.90;;;;;;5038988;28;20021;-70
2022/01/20 09:03:43;;;;;;;0.10;0.10;;;4.40;99.90;;;;;;5031579;28;20030;-71
2022/01/20 09:06:08;;;;;;;0.10;0.10;;;4.30;99.90;;;;;;5015627;28;20086;-70
2022/01/20 09:08:35;;;;;;;0.20;0.20;;;4.40;99.90;;;;;;5036442;28;20029;-69
2022/01/20 09:11:03;;;;;;;0.10;0.10;;;4.40;99.90;;;;;;5033897;28;20076;-71
2022/01/20 09:16:13;;;;;;;0.10;0.10;;;4.40;99.90;;;;;;5031939;28;20027;-71
2022/01/20 09:18:38;;;;;;;0.10;0.10;;;4.50;99.90;;;;;;5074580;22;20040;-72
2022/01/20 09:21:04;;;;;;;0.10;0.10;;;4.60;99.90;;;;;;5067714;28;20028;-73
2022/01/20 09:23:30;;;;;;;0.10;0.10;;;4.60;99.90;;;;;;5068872;28;20037;-73
2022/01/20 09:25:56;;;;;;;0.10;0.10;;;4.70;99.90;;;;;;5067249;28;20024;-73
2022/01/20 09:28:21;;;;;;;0.10;0.10;;;4.70;99.90;;;;;;5067195;28;20020;-74
2022/01/20 09:30:49;;;;;;;0.10;0.10;;;4.70;99.90;;;;;;5069563;28;20029;-73
2022/01/20 09:33:24;;;;;;;0.10;0.10;;;4.70;99.90;;;;;;5069173;28;20028;-73
2022/01/20 09:35:49;;;;;;;0.10;0.10;;;4.80;99.90;;;;;;5067911;28;20188;-73
2022/01/20 09:38:15;;;;;;;1.55;1.45;;;4.80;99.90;;;;;;5066230;28;20494;-71
2022/01/20 09:40:42;;;;;;;0.10;0.10;;;4.80;99.90;;;;;;5068767;28;20056;-72
2022/01/20 09:43:11;;;;;;;0.10;0.10;;;4.90;99.90;;;;;;5068471;28;20364;-72
2022/01/20 09:45:38;;;;;;;0.10;0.10;;;4.90;99.90;;;;;;5071195;28;20033;-71
2022/01/20 09:48:04;;;;;;;0.10;0.10;;;4.80;99.90;;;;;;5069204;28;20081;-71
2022/01/20 09:50:30;;;;;;;0.10;0.10;;;4.90;99.90;;;;;;5066312;28;20033;-72
2022/01/20 09:52:59;;;;;;;0.10;0.10;;;4.90;99.90;;;;;;5067091;28;20029;-72
2022/01/20 09:55:25;;;;;;;0.10;0.10;;;4.90;99.90;;;;;;5055535;28;20043;-72
2022/01/20 09:57:51;;;;;;;0.30;0.30;;;4.90;99.90;;;;;;5069941;28;20036;-71
2022/01/20 10:00:17;;;;;;;0.10;0.10;;;5.00;99.90;;;;;;5069400;28;20031;-72
2022/01/20 10:02:52;;;;;;;0.10;0.10;;;5.00;99.90;;;;;;5068537;28;20033;-71
2022/01/20 10:05:33;;;;;;;0.10;0.10;;;5.10;99.90;;;;;;5067818;28;20039;-72
2022/01/20 10:08:03;;;;;;;0.10;0.10;;;5.10;99.90;;;;;;5068387;28;20111;-72
2022/01/20 10:10:44;;;;;;;0.43;0.43;;;5.20;99.90;;;;;;5065271;28;20024;-73
2022/01/20 10:13:11;;;;;;;0.10;0.10;;;5.20;99.90;;;;;;5061587;28;20033;-72
2022/01/20 10:15:37;;;;;;;0.10;0.10;;;5.20;99.90;;;;;;5066282;28;20086;-72
2022/01/20 10:18:05;;;;;;;0.10;0.10;;;5.10;99.90;;;;;;5067473;28;20032;-73
2022/01/20 10:20:31;;;;;;;0.10;0.10;;;5.10;99.90;;;;;;5065510;28;20094;-73
2022/01/20 10:22:57;;;;;;;0.10;0.10;;;5.20;99.90;;;;;;5064546;28;20029;-76
2022/01/20 10:25:24;;;;;;;1.65;1.50;;;5.10;99.90;;;;;;5071429;28;20418;-73
2022/01/20 10:27:53;;;;;;;0.10;0.10;;;5.10;99.90;;;;;;5061516;28;20040;-74
2022/01/20 10:30:20;;;;;;;0.10;0.10;;;5.10;99.90;;;;;;5072112;28;20055;-73
2022/01/20 10:32:49;;;;;;;0.10;0.10;;;5.10;99.90;;;;;;5069395;28;20486;-72
2022/01/20 10:35:18;;;;;;;0.10;0.10;;;5.10;99.90;;;;;;5064493;28;20450;-74
2022/01/20 10:38:15;;;;;;;0.08;0.08;;;5.20;99.90;;;;;;5068964;28;20020;-73
2022/01/20 10:40:59;;;;;;;0.10;0.10;;;5.20;99.90;;;;;;5062164;28;20094;-73
2022/01/20 10:43:28;;;;;;;0.10;0.10;;;5.10;99.90;;;;;;5068618;28;20040;-73
2022/01/20 10:46:12;;;;;;;0.10;0.10;;;5.20;99.90;;;;;;5066833;28;20112;-74
2022/01/20 10:48:39;;;;;;;0.10;0.10;;;5.10;99.90;;;;;;5064943;28;20032;-73
2022/01/20 10:51:19;;;;;;;0.10;0.10;;;5.20;99.90;;;;;;5067818;28;20031;-75
2022/01/20 10:53:44;;;;;;;0.10;0.10;;;5.20;99.90;;;;;;5066324;28;20418;-73
2022/01/20 10:56:10;;;;;;;0.10;0.10;;;5.30;99.90;;;;;;5066848;28;20035;-73
2022/01/20 10:58:36;;;;;;;0.10;0.10;;;5.30;99.90;;;;;;5065523;28;20557;-75
2022/01/20 11:01:03;;;;;;;0.10;0.10;;;5.40;99.90;;;;;;5068409;28;20142;-75
2022/01/20 11:03:31;;;;;;;0.10;0.10;;;5.50;99.90;;;;;;5068926;28;20074;-73
2022/01/20 11:05:59;;;;;;;0.10;0.10;;;5.50;99.90;;;;;;5065571;28;20059;-74
2022/01/20 11:08:24;;;;;;;0.10;0.10;;;5.50;99.90;;;;;;5067849;28;20023;-76
2022/01/20 11:10:52;;;;;;;0.10;0.10;;;5.30;99.90;;;;;;5070004;28;20032;-75
2022/01/20 11:13:19;;;;;;;0.10;0.10;;;5.30;99.90;;;;;;5071619;28;20020;-74
2022/01/20 11:15:46;;;;;;;0.10;0.10;;;5.30;99.90;;;;;;5068045;28;20040;-74
2022/01/20 11:18:13;;;;;;;0.10;0.10;;;5.20;99.90;;;;;;5073152;28;20036;-75
2022/01/20 11:20:47;;;;;;;0.10;0.10;;;5.20;99.90;;;;;;5072723;28;20029;-75
2022/01/20 11:23:13;;;;;;;0.10;0.10;;;5.30;99.90;;;;;;5074430;28;20096;-74
2022/01/20 11:25:41;;;;;;;0.35;0.35;;;5.30;99.90;;;;;;5071084;28;20029;-75
2022/01/20 11:28:12;;;;;;;0.10;0.10;;;5.30;99.90;;;;;;5067115;28;20032;-74
2022/01/20 11:30:42;;;;;;;0.10;0.10;;;5.30;99.90;;;;;;5066196;28;20055;-74
2022/01/20 11:33:10;;;;;;;0.10;0.10;;;5.30;99.90;;;;;;5069591;28;20016;-77
2022/01/20 11:35:46;;;;;;;0.30;0.30;;;5.00;99.90;;;;;;5075751;28;20073;-78
2022/01/20 11:38:15;;;;;;;0.30;0.30;;;5.20;99.90;;;;;;5086694;28;20020;-75
2022/01/20 11:41:13;;;;;;;0.17;0.17;;;5.20;99.90;;;;;;5076994;28;20036;-73
2022/01/20 11:43:41;;;;;;;0.10;0.10;;;5.20;99.90;;;;;;5059977;28;20127;-77
2022/01/20 11:46:13;;;;;;;0.10;0.10;;;5.30;99.90;;;;;;5069689;28;20123;-74
2022/01/20 11:49:03;;;;;;;0.10;0.10;;;5.30;99.90;;;;;;5072324;28;20142;-74
2022/01/20 11:51:43;;;;;;;0.10;0.10;;;5.40;99.90;;;;;;5072256;28;20478;-73
2022/01/20 11:54:10;;;;;;;0.10;0.10;;;5.60;99.90;;;;;;5073997;28;20032;-72
2022/01/20 11:56:41;;;;;;;0.10;0.10;;;5.30;99.90;;;;;;5074835;28;20024;-74
2022/01/20 11:59:10;;;;;;;0.10;0.10;;;5.60;99.90;;;;;;5039814;28;20449;-73
2022/01/20 12:02:02;;;;;;;0.10;0.10;;;5.60;99.90;;;;;;5070268;28;20545;-73
2022/01/20 12:04:40;;;;;;;0.10;0.10;;;5.70;99.90;;;;;;5064754;28;20123;-73
2022/01/20 12:07:08;;;;;;;0.10;0.10;;;5.90;99.90;;;;;;5067424;28;20032;-74
2022/01/20 12:09:37;;;;;;;0.10;0.10;;;6.20;99.90;;;;;;5068269;28;20173;-74
2022/01/20 12:12:18;;;;;;;0.10;0.10;;;6.20;99.90;;;;;;5066171;28;20025;-74
2022/01/20 12:14:45;;;;;;;0.10;0.10;;;6.20;99.90;;;;;;5068361;28;20104;-75
2022/01/20 12:17:16;;;;;;;0.10;0.10;;;6.10;99.90;;;;;;5070552;28;20107;-74
2022/01/20 12:19:46;;;;;;;0.52;0.43;;;5.70;99.90;;;;;;5066251;28;20040;-75
2022/01/20 12:22:11;;;;;;;0.10;0.10;;;5.70;99.90;;;;;;5067841;28;20111;-74
2022/01/20 12:24:37;;;;;;;0.10;0.10;;;5.50;99.90;;;;;;5069756;28;20103;-74
2022/01/20 12:27:20;;;;;;;0.77;0.77;;;5.50;99.90;;;;;;5070191;28;20050;-74
2022/01/20 12:29:45;;;;;;;0.10;0.10;;;5.50;99.90;;;;;;5069121;28;20581;-73
2022/01/20 12:32:17;;;;;;;0.10;0.10;;;4.90;99.90;;;;;;5070524;28;20107;-75
2022/01/20 12:34:44;;;;;;;0.10;0.10;;;4.50;99.90;;;;;;5069931;28;20024;-75
2022/01/20 12:37:10;;;;;;;0.10;0.10;;;4.00;99.90;;;;;;5076470;28;20082;-73
2022/01/20 12:39:39;;;;;;;0.10;0.10;;;3.70;99.90;;;;;;5069997;28;20024;-73
2022/01/20 12:42:07;;;;;;;0.10;0.10;;;3.50;99.90;;;;;;5069691;28;20032;-74
2022/01/20 12:44:40;;;;;;;0.10;0.10;;;3.40;99.90;;;;;;5067823;28;20029;-74
2022/01/20 12:47:05;;;;;;;0.10;0.10;;;3.40;99.90;;;;;;5069085;28;20020;-76
2022/01/20 12:49:31;;;;;;;0.10;0.10;;;3.60;99.90;;;;;;5070349;28;20036;-75
2022/01/20 12:51:58;;;;;;;0.10;0.10;;;3.50;99.90;;;;;;5067855;28;20037;-74
2022/01/20 12:54:28;;;;;;;0.10;0.10;;;3.60;99.90;;;;;;5069186;28;20025;-74
2022/01/20 12:56:56;;;;;;;0.10;0.10;;;3.50;99.90;;;;;;5069406;28;20413;-73
2022/01/20 12:59:28;;;;;;;0.10;0.10;;;3.30;99.90;;;;;;5066778;28;20033;-74
2022/01/20 13:01:56;;;;;;;0.10;0.10;;;3.20;99.90;;;;;;5066965;28;20028;-74
2022/01/20 13:04:25;;;;;;;0.10;0.10;;;3.10;99.90;;;;;;5069716;28;20048;-75
2022/01/20 13:06:58;;;;;;;0.10;0.10;;;3.20;99.90;;;;;;5068481;28;20029;-74
2022/01/20 13:09:35;;;;;;;;;;;3.20;99.90;;;;;;5064989;28;20016;-73
2022/01/20 13:12:02;;;;;;;0.10;0.10;;;3.10;99.90;;;;;;5078963;28;19908;-73
2022/01/20 13:14:41;;;;;;;0.10;0.10;;;3.10;99.90;;;;;;5068760;28;20032;-74
2022/01/20 13:17:44;;;;;;;0.10;0.10;;;3.20;99.90;;;;;;5073171;28;20078;-75
2022/01/20 13:20:21;;;;;;;0.10;0.10;;;3.10;99.90;;;;;;5033128;28;20109;-74
2022/01/20 13:22:56;;;;;;;0.10;0.10;;;3.00;99.90;;;;;;5068750;28;20055;-72
2022/01/20 13:25:27;;;;;;;0.10;0.10;;;3.10;99.90;;;;;;5052943;28;20036;-73
2022/01/20 13:27:58;;;;;;;0.10;0.10;;;3.10;99.90;;;;;;5068461;28;20055;-74
2022/01/20 13:30:30;;;;;;;0.10;0.10;;;3.10;99.90;;;;;;5069714;28;20031;-74
2022/01/20 13:32:58;;;;;;;0.10;0.10;;;3.00;99.90;;;;;;5064996;28;20112;-74
2022/01/20 13:35:24;;;;;;;0.10;0.10;;;3.00;99.90;;;;;;5066887;28;20042;-74
2022/01/20 13:38:03;;;;;;;0.10;0.10;;;2.90;99.90;;;;;;5068512;28;20430;-76
2022/01/20 13:40:28;;;;;;;0.10;0.10;;;3.00;99.90;;;;;;5065515;28;20105;-74
2022/01/20 13:45:44;;;;;;;0.10;0.10;;;3.10;99.90;;;;;;5069485;28;20412;-73
2022/01/20 13:48:13;;;;;;;0.10;0.10;;;3.10;99.90;;;;;;5069621;28;20630;-72
2022/01/20 13:50:44;;;;;;;0.10;0.10;;;3.00;99.90;;;;;;5069138;28;20024;-72
2022/01/20 13:53:18;;;;;;;0.10;0.10;;;3.10;99.90;;;;;;5068768;28;20096;-73
2022/01/20 13:55:47;;;;;;;0.10;0.10;;;3.00;99.90;;;;;;5067997;28;20048;-74
2022/01/20 13:58:28;;;;;;;0.10;0.10;;;3.00;99.90;;;;;;5069134;28;20474;-73
2022/01/20 14:00:55;;;;;;;0.10;0.10;;;3.10;99.90;;;;;;5068588;28;20203;-75
2022/01/20 14:03:23;;;;;;;0.10;0.10;;;3.10;99.90;;;;;;5067585;28;20021;-74
2022/01/20 14:05:50;;;;;;;0.10;0.10;;;3.20;99.90;;;;;;5066188;28;20025;-75
2022/01/20 14:08:16;;;;;;;0.10;0.10;;;3.10;99.90;;;;;;5066878;28;20009;-75
2022/01/20 14:10:42;;;;;;;0.10;0.10;;;3.30;99.90;;;;;;5069019;28;20064;-75
2022/01/20 14:13:08;;;;;;;0.10;0.10;;;3.20;99.90;;;;;;5054785;28;20527;-74
2022/01/20 14:15:34;;;;;;;0.10;0.10;;;3.20;99.90;;;;;;5067231;28;20039;-74
2022/01/20 14:18:00;;;;;;;0.10;0.10;;;3.20;99.90;;;;;;5063909;28;20385;-74